Time;durP1;ratioP1;P1;durP2;ratioP2;P2;SDS_P1;SDS_P2;PMS_P1;PMS_P2;Temp;Humidity;BMP_temperature;BMP_pressure;BME280_temperature;BME280_humidity;BME280_pressure;Samples;Min_cycle;Max_cycle;Signal;HPM_P1;HPM_P2
2023/04/14 00:01:00;;;;;;;8.45;3.50;;;;;;;;;;5011374;28;20053;-69
2023/04/14 00:03:30;;;;;;;9.65;3.42;;;;;;;;;;5011385;28;20050;-68
2023/04/14 00:06:01;;;;;;;11.27;3.00;;;;;;;;;;4976215;28;20054;-68
2023/04/14 00:08:31;;;;;;;8.93;2.92;;;;;;;;;;5011292;28;20110;-67
2023/04/14 00:11:01;;;;;;;10.48;3.50;;;;;;;;;;5011032;28;20050;-66
2023/04/14 00:13:32;;;;;;;7.95;4.15;;;;;;;;;;5010836;28;20076;-66
2023/04/14 00:16:02;;;;;;;10.27;4.00;;;;;;;;;;5010932;28;20042;-66
2023/04/14 00:18:33;;;;;;;8.52;3.58;;;;;;;;;;5011181;28;20057;-66
2023/04/14 00:21:04;;;;;;;8.77;4.13;;;;;;;;;;4960461;28;20410;-69
2023/04/14 00:23:35;;;;;;;12.10;3.85;;;;;;;;;;5011361;28;20050;-73
2023/04/14 00:26:05;;;;;;;9.40;3.58;;;;;;;;;;4960556;28;20080;-69
2023/04/14 00:28:37;;;;;;;5.57;3.42;;;;;;;;;;4973240;28;20046;-73
2023/04/14 00:31:11;;;;;;;7.18;3.63;;;;;;;;;;4959510;28;20069;-70
2023/04/14 00:33:42;;;;;;;7.57;3.63;;;;;;;;;;4975359;28;20069;-69
2023/04/14 00:36:12;;;;;;;8.65;3.72;;;;;;;;;;4916388;28;20090;-68
2023/04/14 00:38:43;;;;;;;6.55;2.67;;;;;;;;;;4963803;28;20065;-68
2023/04/14 00:41:14;;;;;;;8.57;3.65;;;;;;;;;;4925392;29;20519;-66
2023/04/14 00:43:45;;;;;;;9.88;3.75;;;;;;;;;;4909279;29;20056;-67
2023/04/14 00:46:16;;;;;;;7.40;3.17;;;;;;;;;;4894069;29;20060;-67
2023/04/14 00:48:48;;;;;;;7.32;3.85;;;;;;;;;;4911369;29;20048;-68
2023/04/14 00:51:18;;;;;;;6.90;3.75;;;;;;;;;;4911267;29;20087;-67
2023/04/14 00:53:50;;;;;;;9.57;4.25;;;;;;;;;;4908357;29;20071;-67
2023/04/14 00:56:22;;;;;;;7.53;3.22;;;;;;;;;;4906458;29;20059;-67
2023/04/14 00:58:53;;;;;;;9.73;3.70;;;;;;;;;;4907173;29;20448;-68
2023/04/14 01:01:24;;;;;;;;;;;;;;;;;;4906539;29;20056;-68
2023/04/14 01:03:55;;;;;;;6.45;3.60;;;;;;;;;;4908378;29;19923;-67
2023/04/14 01:06:26;;;;;;;6.53;3.75;;;;;;;;;;4900700;29;20061;-67
2023/04/14 01:08:56;;;;;;;7.28;3.47;;;;;;;;;;4885657;29;20267;-67
2023/04/14 01:11:49;;;;;;;7.97;3.92;;;;;;;;;;4911118;29;20048;-67
2023/04/14 01:14:50;;;;;;;11.77;5.03;;;;;;;;;;4909028;29;20063;-66
2023/04/14 01:17:34;;;;;;;12.57;5.05;;;;;;;;;;4925462;29;20066;-66
2023/04/14 01:20:43;;;;;;;7.75;4.18;;;;;;;;;;4928436;29;20055;-67
2023/04/14 01:23:26;;;;;;;8.30;4.38;;;;;;;;;;4925314;29;20075;-66
2023/04/14 01:26:16;;;;;;;11.35;4.55;;;;;;;;;;4938930;28;20055;-69
2023/04/14 01:29:16;;;;;;;9.50;4.68;;;;;;;;;;4914437;29;20052;-70
2023/04/14 01:31:49;;;;;;;11.15;4.22;;;;;;;;;;4892877;29;20059;-69
2023/04/14 01:34:30;;;;;;;7.25;3.35;;;;;;;;;;4916538;29;20048;-69
2023/04/14 01:37:13;;;;;;;10.02;4.15;;;;;;;;;;4876554;29;20064;-70
2023/04/14 01:39:54;;;;;;;7.75;3.90;;;;;;;;;;4880005;29;20053;-72
2023/04/14 01:42:29;;;;;;;12.20;4.88;;;;;;;;;;4914423;29;20118;-71
2023/04/14 01:45:10;;;;;;;7.82;3.95;;;;;;;;;;4895686;29;20525;-70
2023/04/14 01:47:42;;;;;;;6.93;3.95;;;;;;;;;;4911024;29;20047;-68
2023/04/14 01:50:12;;;;;;;;;;;;;;;;;;4880268;29;20517;-68
2023/04/14 01:52:46;;;;;;;8.57;4.03;;;;;;;;;;4858165;29;19931;-67
2023/04/14 01:55:21;;;;;;;7.93;3.92;;;;;;;;;;4857931;29;20061;-67
2023/04/14 01:57:53;;;;;;;8.55;3.67;;;;;;;;;;4866651;29;20430;-67
2023/04/14 02:00:25;;;;;;;8.27;4.15;;;;;;;;;;4876165;29;20056;-67
2023/04/14 02:02:55;;;;;;;8.40;4.10;;;;;;;;;;4868398;29;20436;-68
2023/04/14 02:05:35;;;;;;;8.68;4.25;;;;;;;;;;4855345;29;20049;-67
2023/04/14 02:08:11;;;;;;;6.88;4.13;;;;;;;;;;4839956;29;20206;-66
2023/04/14 02:10:45;;;;;;;9.13;3.78;;;;;;;;;;4839101;29;20065;-67
2023/04/14 02:13:18;;;;;;;11.30;3.85;;;;;;;;;;4812293;29;20676;-67
2023/04/14 02:15:50;;;;;;;8.82;3.47;;;;;;;;;;4855061;29;20058;-67
2023/04/14 02:18:22;;;;;;;8.07;4.10;;;;;;;;;;4824433;29;20066;-67
2023/04/14 02:20:53;;;;;;;;;;;;;;;;;;4824749;29;20062;-66
2023/04/14 02:23:23;;;;;;;7.15;4.07;;;;;;;;;;4857738;29;19924;-67
2023/04/14 02:26:08;;;;;;;9.98;4.20;;;;;;;;;;4838942;29;20054;-66
2023/04/14 02:28:48;;;;;;;8.52;4.25;;;;;;;;;;4838965;29;20069;-67
2023/04/14 02:31:22;;;;;;;7.00;4.10;;;;;;;;;;4839264;29;20054;-67
2023/04/14 02:33:55;;;;;;;6.53;3.83;;;;;;;;;;4837914;29;20061;-67
2023/04/14 02:36:39;;;;;;;9.40;4.20;;;;;;;;;;4820499;29;20066;-67
2023/04/14 02:39:19;;;;;;;6.75;3.97;;;;;;;;;;4806444;29;20050;-67
2023/04/14 02:42:14;;;;;;;7.88;3.55;;;;;;;;;;4821048;29;20062;-66
2023/04/14 02:44:51;;;;;;;10.10;3.47;;;;;;;;;;4876122;29;20525;-67
2023/04/14 02:47:49;;;;;;;10.70;4.00;;;;;;;;;;4896233;29;20052;-67
2023/04/14 02:50:22;;;;;;;7.30;3.50;;;;;;;;;;4875857;29;20049;-66
2023/04/14 02:53:03;;;;;;;8.32;3.53;;;;;;;;;;4894414;29;20052;-66
2023/04/14 02:55:37;;;;;;;5.25;2.63;;;;;;;;;;4857159;29;20057;-66
2023/04/14 02:58:08;;;;;;;7.88;3.60;;;;;;;;;;4838351;29;20538;-66
2023/04/14 03:00:40;;;;;;;7.32;3.20;;;;;;;;;;4850856;29;20053;-67
2023/04/14 03:03:12;;;;;;;8.40;3.67;;;;;;;;;;4856848;29;20567;-66
2023/04/14 03:05:44;;;;;;;8.55;4.35;;;;;;;;;;4856839;29;20415;-66
2023/04/14 03:08:17;;;;;;;7.50;4.50;;;;;;;;;;4838218;29;20388;-68
2023/04/14 03:10:52;;;;;;;10.70;4.88;;;;;;;;;;4819972;29;20050;-67
2023/04/14 03:13:27;;;;;;;9.82;4.30;;;;;;;;;;4813523;29;20057;-67
2023/04/14 03:15:58;;;;;;;8.57;3.75;;;;;;;;;;4820119;29;20077;-67
2023/04/14 03:18:32;;;;;;;8.38;4.20;;;;;;;;;;4769094;30;20067;-66
2023/04/14 03:21:03;;;;;;;7.75;4.35;;;;;;;;;;4765920;30;20058;-67
2023/04/14 03:23:36;;;;;;;10.30;4.35;;;;;;;;;;4720315;30;20060;-67
2023/04/14 03:26:11;;;;;;;6.18;3.80;;;;;;;;;;4729563;30;20053;-67
2023/04/14 03:28:42;;;;;;;6.60;4.28;;;;;;;;;;4765707;30;20060;-66
2023/04/14 03:31:15;;;;;;;8.98;4.30;;;;;;;;;;4761586;29;20422;-67
2023/04/14 03:33:56;;;;;;;6.63;3.75;;;;;;;;;;4760649;30;20055;-66
2023/04/14 03:36:34;;;;;;;6.75;3.90;;;;;;;;;;4783812;29;20070;-66
2023/04/14 03:39:04;;;;;;;;;;;;;;;;;;4773255;29;20563;-67
2023/04/14 03:41:41;;;;;;;7.05;3.88;;;;;;;;;;4765596;30;19926;-67
2023/04/14 03:44:14;;;;;;;8.88;4.10;;;;;;;;;;4775780;30;20074;-67
2023/04/14 03:46:48;;;;;;;6.80;3.75;;;;;;;;;;4768859;30;20055;-66
2023/04/14 03:49:20;;;;;;;9.07;4.10;;;;;;;;;;4783507;30;20063;-67
2023/04/14 03:51:53;;;;;;;11.07;4.13;;;;;;;;;;4768642;30;20059;-68
2023/04/14 03:54:26;;;;;;;6.45;3.72;;;;;;;;;;4783514;30;20082;-67
2023/04/14 03:56:58;;;;;;;5.63;3.35;;;;;;;;;;4783151;29;20059;-66
2023/04/14 03:59:30;;;;;;;7.78;4.25;;;;;;;;;;4779956;30;20058;-66
2023/04/14 04:02:01;;;;;;;7.82;3.88;;;;;;;;;;4816038;29;20055;-66
2023/04/14 04:04:33;;;;;;;16.48;3.95;;;;;;;;;;4781464;29;20067;-67
2023/04/14 04:07:09;;;;;;;9.30;3.60;;;;;;;;;;4780163;30;20161;-67
2023/04/14 04:09:41;;;;;;;7.30;3.85;;;;;;;;;;4812933;29;20085;-66
2023/04/14 04:12:12;;;;;;;;;;;;;;;;;;4814923;29;20068;-69
2023/04/14 04:14:42;;;;;;;;;;;;;;;;;;4888006;29;19930;-73
2023/04/14 04:17:17;;;;;;;8.95;3.83;;;;;;;;;;4874332;29;20408;-71
2023/04/14 04:19:49;;;;;;;6.82;3.63;;;;;;;;;;4856001;29;20057;-70
2023/04/14 04:22:22;;;;;;;9.35;3.85;;;;;;;;;;4840779;29;20056;-70
2023/04/14 04:24:55;;;;;;;8.23;3.88;;;;;;;;;;4822168;29;20057;-70
2023/04/14 04:27:30;;;;;;;9.15;4.10;;;;;;;;;;4855643;29;20205;-68
2023/04/14 04:30:09;;;;;;;8.32;3.75;;;;;;;;;;4869701;29;20056;-67
2023/04/14 04:32:40;;;;;;;7.68;4.05;;;;;;;;;;4855556;29;20056;-66
2023/04/14 04:35:12;;;;;;;10.25;4.70;;;;;;;;;;4825528;29;20383;-66
2023/04/14 04:37:45;;;;;;;7.20;3.65;;;;;;;;;;4824033;29;20566;-65
2023/04/14 04:40:15;;;;;;;9.43;4.13;;;;;;;;;;4788569;29;20050;-67
2023/04/14 04:42:47;;;;;;;8.85;4.32;;;;;;;;;;4769628;29;20073;-66
2023/04/14 04:45:44;;;;;;;7.78;4.18;;;;;;;;;;4764856;30;20064;-67
2023/04/14 04:48:14;;;;;;;9.93;3.80;;;;;;;;;;4712091;30;20053;-67
2023/04/14 04:50:45;;;;;;;6.35;3.67;;;;;;;;;;4712369;30;20065;-67
2023/04/14 04:53:15;;;;;;;9.70;4.32;;;;;;;;;;4683613;30;20072;-66
2023/04/14 04:55:46;;;;;;;8.55;3.85;;;;;;;;;;4654719;30;20065;-66
2023/04/14 04:58:16;;;;;;;8.32;3.72;;;;;;;;;;4711061;30;20061;-66
2023/04/14 05:00:46;;;;;;;8.95;4.30;;;;;;;;;;4713726;30;20065;-66
2023/04/14 05:03:16;;;;;;;7.45;3.95;;;;;;;;;;4729560;30;20064;-68
2023/04/14 05:05:46;;;;;;;9.45;4.13;;;;;;;;;;4732942;30;20057;-67
2023/04/14 05:08:17;;;;;;;8.98;3.92;;;;;;;;;;4772087;29;20056;-67
2023/04/14 05:10:47;;;;;;;7.63;4.13;;;;;;;;;;4758240;29;20098;-67
2023/04/14 05:13:17;;;;;;;7.60;4.20;;;;;;;;;;4789151;29;20066;-66
2023/04/14 05:15:48;;;;;;;6.57;3.90;;;;;;;;;;4786799;29;20066;-67
2023/04/14 05:18:19;;;;;;;7.60;4.63;;;;;;;;;;4822483;29;20058;-67
2023/04/14 05:20:49;;;;;;;9.30;4.07;;;;;;;;;;4818832;29;20073;-66
2023/04/14 05:23:19;;;;;;;6.38;4.00;;;;;;;;;;4840609;29;20066;-67
2023/04/14 05:25:49;;;;;;;8.80;4.13;;;;;;;;;;4897346;29;20129;-67
2023/04/14 05:28:22;;;;;;;9.20;4.10;;;;;;;;;;4953380;29;20627;-67
2023/04/14 05:30:53;;;;;;;9.02;3.90;;;;;;;;;;4953260;29;20051;-67
2023/04/14 05:33:23;;;;;;;8.30;4.32;;;;;;;;;;4921328;29;20052;-66
2023/04/14 05:35:53;;;;;;;9.10;4.28;;;;;;;;;;4934418;29;20051;-67
2023/04/14 05:38:23;;;;;;;12.18;4.40;;;;;;;;;;4929995;29;20048;-66
2023/04/14 05:40:54;;;;;;;8.75;4.35;;;;;;;;;;4886982;29;20504;-66
2023/04/14 05:43:24;;;;;;;8.30;4.78;;;;;;;;;;4933778;29;20117;-66
2023/04/14 05:45:57;;;;;;;11.85;4.90;;;;;;;;;;4917869;29;20416;-68
2023/04/14 05:48:29;;;;;;;11.30;4.03;;;;;;;;;;4948056;28;20158;-67
2023/04/14 05:51:00;;;;;;;10.13;4.05;;;;;;;;;;4937974;28;20059;-66
2023/04/14 05:53:30;;;;;;;6.75;4.25;;;;;;;;;;4972293;28;20059;-67
2023/04/14 05:56:00;;;;;;;7.82;4.93;;;;;;;;;;4939905;28;20411;-67
2023/04/14 05:58:30;;;;;;;10.32;4.03;;;;;;;;;;4972006;28;20426;-67
2023/04/14 06:01:02;;;;;;;7.28;4.35;;;;;;;;;;4955649;28;20063;-67
2023/04/14 06:03:32;;;;;;;;;;;;;;;;;;4940240;28;20047;-67
2023/04/14 06:06:04;;;;;;;9.68;4.47;;;;;;;;;;4940908;28;19922;-67
2023/04/14 06:08:35;;;;;;;8.82;3.78;;;;;;;;;;4971956;28;20050;-67
2023/04/14 06:11:06;;;;;;;8.20;3.70;;;;;;;;;;4923564;28;20462;-68
2023/04/14 06:13:36;;;;;;;7.60;4.25;;;;;;;;;;4938820;28;20061;-67
2023/04/14 06:16:07;;;;;;;10.68;4.35;;;;;;;;;;4971613;28;20054;-67
2023/04/14 06:18:37;;;;;;;10.18;4.40;;;;;;;;;;4983425;28;20065;-68
2023/04/14 06:21:07;;;;;;;12.98;4.75;;;;;;;;;;4991267;28;20050;-68
2023/04/14 06:23:37;;;;;;;7.50;4.35;;;;;;;;;;4993590;28;20057;-68
2023/04/14 06:26:08;;;;;;;9.70;4.68;;;;;;;;;;4993527;28;20505;-67
2023/04/14 06:28:38;;;;;;;9.68;4.30;;;;;;;;;;4993353;28;20049;-67
2023/04/14 06:31:13;;;;;;;8.38;4.82;;;;;;;;;;4993188;28;20054;-68
2023/04/14 06:33:43;;;;;;;10.68;4.60;;;;;;;;;;4959016;28;20540;-65
2023/04/14 06:36:15;;;;;;;7.28;4.40;;;;;;;;;;4974970;28;20054;-65
2023/04/14 06:38:45;;;;;;;11.27;5.80;;;;;;;;;;4993407;28;20399;-67
2023/04/14 06:41:15;;;;;;;8.68;4.28;;;;;;;;;;4992969;28;20490;-68
2023/04/14 06:43:45;;;;;;;8.85;5.57;;;;;;;;;;4993322;28;20410;-70
2023/04/14 06:46:16;;;;;;;8.38;4.57;;;;;;;;;;4993075;28;20042;-72
2023/04/14 06:48:47;;;;;;;;;;;;;;;;;;4993300;28;20054;-73
2023/04/14 06:51:17;;;;;;;11.10;4.85;;;;;;;;;;4974610;28;19929;-71
2023/04/14 06:53:50;;;;;;;11.68;4.90;;;;;;;;;;4993957;28;20058;-72
2023/04/14 06:56:20;;;;;;;11.90;5.93;;;;;;;;;;5012221;28;20041;-69
2023/04/14 06:58:51;;;;;;;11.10;4.75;;;;;;;;;;5012269;28;20513;-67
2023/04/14 07:01:21;;;;;;;11.90;5.30;;;;;;;;;;5012442;28;20050;-68
2023/04/14 07:03:52;;;;;;;8.18;5.07;;;;;;;;;;5012353;28;20053;-67
2023/04/14 07:06:23;;;;;;;10.95;5.35;;;;;;;;;;4961643;28;20050;-66
2023/04/14 07:08:54;;;;;;;15.02;6.57;;;;;;;;;;4922550;28;20662;-66
2023/04/14 07:11:24;;;;;;;16.92;5.90;;;;;;;;;;4970630;28;20062;-67
2023/04/14 07:13:55;;;;;;;13.65;5.93;;;;;;;;;;4955017;28;20067;-67
2023/04/14 07:16:24;;;;;;;12.13;6.00;;;;;;;;;;4970413;28;20061;-67
2023/04/14 07:18:54;;;;;;;11.55;6.05;;;;;;;;;;4970708;28;20062;-66
2023/04/14 07:21:26;;;;;;;10.20;6.43;;;;;;;;;;4970595;28;20507;-66
2023/04/14 07:23:56;;;;;;;13.32;7.20;;;;;;;;;;4938180;28;20524;-67
2023/04/14 07:26:26;;;;;;;16.02;6.57;;;;;;;;;;4970625;28;20059;-66
2023/04/14 07:28:56;;;;;;;13.38;6.18;;;;;;;;;;4970461;28;20116;-67
2023/04/14 07:31:28;;;;;;;14.32;6.80;;;;;;;;;;4939260;28;20055;-66
2023/04/14 07:33:58;;;;;;;14.65;7.05;;;;;;;;;;4953893;28;20055;-66
2023/04/14 07:36:31;;;;;;;14.73;7.15;;;;;;;;;;4970297;28;20046;-66
2023/04/14 07:39:01;;;;;;;12.57;6.53;;;;;;;;;;4934199;29;20055;-66
2023/04/14 07:41:31;;;;;;;12.77;6.50;;;;;;;;;;4915473;29;20051;-66
2023/04/14 07:44:01;;;;;;;10.25;5.60;;;;;;;;;;4947477;28;20063;-66
2023/04/14 07:46:31;;;;;;;12.07;5.40;;;;;;;;;;4950941;28;20063;-67
2023/04/14 07:49:02;;;;;;;13.75;5.90;;;;;;;;;;4969859;28;20415;-67
2023/04/14 07:51:32;;;;;;;11.90;5.97;;;;;;;;;;4906168;28;20050;-66
2023/04/14 07:54:04;;;;;;;11.07;5.50;;;;;;;;;;4937580;28;20062;-66
2023/04/14 07:56:34;;;;;;;9.95;5.00;;;;;;;;;;4954253;28;20070;-67
2023/04/14 07:59:04;;;;;;;12.77;7.13;;;;;;;;;;4937719;28;20412;-68
2023/04/14 08:01:34;;;;;;;11.65;5.95;;;;;;;;;;4970013;28;20058;-66
2023/04/14 08:04:05;;;;;;;10.07;5.07;;;;;;;;;;4937646;28;20054;-66
2023/04/14 08:06:36;;;;;;;14.15;5.93;;;;;;;;;;4969949;28;20065;-67
2023/04/14 08:09:06;;;;;;;9.77;5.32;;;;;;;;;;4969883;28;20798;-66
2023/04/14 08:11:36;;;;;;;13.40;5.88;;;;;;;;;;4937500;28;20141;-68
2023/04/14 08:14:06;;;;;;;10.13;5.72;;;;;;;;;;4953319;28;20066;-66
2023/04/14 08:16:35;;;;;;;9.82;5.35;;;;;;;;;;4925254;28;20057;-68
2023/04/14 08:19:06;;;;;;;10.40;5.55;;;;;;;;;;4999902;28;20066;-67
2023/04/14 08:21:36;;;;;;;11.60;5.63;;;;;;;;;;4976716;28;20061;-67
2023/04/14 08:24:06;;;;;;;13.60;5.82;;;;;;;;;;5011067;28;20451;-68
2023/04/14 08:26:36;;;;;;;12.65;6.30;;;;;;;;;;5008891;28;20058;-67
2023/04/14 08:29:06;;;;;;;13.40;6.78;;;;;;;;;;5008734;28;20068;-68
2023/04/14 08:31:36;;;;;;;11.93;6.25;;;;;;;;;;5008569;28;20061;-66
2023/04/14 08:34:06;;;;;;;12.85;6.38;;;;;;;;;;5008639;28;20050;-67
2023/04/14 08:36:36;;;;;;;15.38;6.43;;;;;;;;;;5011740;28;20089;-67
2023/04/14 08:39:06;;;;;;;13.82;7.35;;;;;;;;;;4980683;28;20049;-67
2023/04/14 08:41:41;;;;;;;13.73;6.50;;;;;;;;;;4979753;28;20050;-67
2023/04/14 08:44:11;;;;;;;13.60;7.07;;;;;;;;;;4979766;28;20054;-68
2023/04/14 08:46:47;;;;;;;11.38;6.00;;;;;;;;;;5012601;28;20046;-68
2023/04/14 08:49:32;;;;;;;12.73;6.57;;;;;;;;;;5012308;28;20042;-69
2023/04/14 08:52:05;;;;;;;12.15;6.30;;;;;;;;;;4963794;28;20081;-68
2023/04/14 08:54:36;;;;;;;12.68;6.82;;;;;;;;;;4992608;28;20050;-69
2023/04/14 08:57:11;;;;;;;14.65;7.43;;;;;;;;;;4960542;28;20514;-67
2023/04/14 08:59:41;;;;;;;12.13;6.85;;;;;;;;;;4976609;28;20643;-69
2023/04/14 09:02:13;;;;;;;13.05;6.85;;;;;;;;;;4976146;28;20046;-67
2023/04/14 09:04:44;;;;;;;11.48;6.45;;;;;;;;;;4956853;28;20058;-68
2023/04/14 09:07:15;;;;;;;15.02;7.07;;;;;;;;;;4973101;28;20070;-67
2023/04/14 09:09:45;;;;;;;14.32;6.20;;;;;;;;;;4990885;28;20050;-69
2023/04/14 09:12:16;;;;;;;13.13;6.50;;;;;;;;;;4973645;28;20054;-67
2023/04/14 09:14:49;;;;;;;12.00;6.55;;;;;;;;;;4992468;28;20053;-68
2023/04/14 09:17:20;;;;;;;11.05;5.78;;;;;;;;;;4991972;28;20158;-68
2023/04/14 09:19:50;;;;;;;14.95;6.72;;;;;;;;;;4975591;28;20057;-68
2023/04/14 09:22:41;;;;;;;12.98;6.53;;;;;;;;;;4998618;28;20057;-68
2023/04/14 09:25:15;;;;;;;16.00;6.07;;;;;;;;;;4952559;28;20043;-69
2023/04/14 09:27:47;;;;;;;12.60;6.18;;;;;;;;;;4937008;29;20492;-68
2023/04/14 09:30:17;;;;;;;12.82;6.07;;;;;;;;;;4890207;29;20074;-67
2023/04/14 09:32:52;;;;;;;13.25;5.85;;;;;;;;;;4967338;28;20062;-67
2023/04/14 09:35:41;;;;;;;11.45;6.10;;;;;;;;;;4972261;28;20081;-67
2023/04/14 09:38:11;;;;;;;9.18;5.53;;;;;;;;;;4972454;28;20054;-74
2023/04/14 09:40:43;;;;;;;11.38;6.07;;;;;;;;;;4972570;28;20050;-73
2023/04/14 09:43:26;;;;;;;;;;;;;;;;;;4972225;28;20550;-70
2023/04/14 09:46:03;;;;;;;11.50;6.03;;;;;;;;;;4940028;28;19929;-72
2023/04/14 09:48:36;;;;;;;11.48;5.78;;;;;;;;;;4940786;28;20440;-72
2023/04/14 09:51:09;;;;;;;10.77;6.38;;;;;;;;;;4955397;28;20055;-72
2023/04/14 09:53:41;;;;;;;13.23;6.03;;;;;;;;;;4939751;28;20055;-69
2023/04/14 09:56:13;;;;;;;14.98;7.70;;;;;;;;;;4933505;29;20591;-67
2023/04/14 09:58:45;;;;;;;12.13;6.80;;;;;;;;;;4933302;29;20090;-66
2023/04/14 10:01:20;;;;;;;12.63;5.93;;;;;;;;;;4933468;29;20446;-66
2023/04/14 10:03:50;;;;;;;12.85;6.32;;;;;;;;;;4920934;28;20062;-66
2023/04/14 10:06:22;;;;;;;11.50;5.68;;;;;;;;;;4971783;28;20058;-66
2023/04/14 10:08:55;;;;;;;13.82;5.68;;;;;;;;;;4924662;28;20074;-66
2023/04/14 10:11:31;;;;;;;12.50;6.15;;;;;;;;;;4971446;28;20431;-66
2023/04/14 10:14:04;;;;;;;11.93;5.80;;;;;;;;;;4971523;28;20059;-66
2023/04/14 10:16:34;;;;;;;11.02;6.15;;;;;;;;;;4923322;28;20047;-65
2023/04/14 10:19:04;;;;;;;14.57;5.78;;;;;;;;;;4971564;28;20392;-66
2023/04/14 10:21:35;;;;;;;10.73;5.75;;;;;;;;;;4939352;28;20070;-66
2023/04/14 10:24:05;;;;;;;10.48;5.07;;;;;;;;;;4971441;28;20058;-66
2023/04/14 10:26:36;;;;;;;10.82;5.75;;;;;;;;;;4924823;28;20054;-66
2023/04/14 10:29:07;;;;;;;10.63;5.78;;;;;;;;;;4955063;28;21109;-66
2023/04/14 10:31:39;;;;;;;11.10;5.70;;;;;;;;;;4893050;28;20062;-66
2023/04/14 10:34:14;;;;;;;10.82;5.65;;;;;;;;;;4950996;28;20054;-65
2023/04/14 10:36:48;;;;;;;11.82;5.70;;;;;;;;;;4986911;28;20053;-66
2023/04/14 10:39:23;;;;;;;11.77;6.05;;;;;;;;;;5032315;28;20041;-66
2023/04/14 10:41:55;;;;;;;50.03;24.63;;;;;;;;;;5013391;28;20084;-66
2023/04/14 10:44:27;;;;;;;18.88;9.70;;;;;;;;;;4997134;28;20438;-66
2023/04/14 10:47:06;;;;;;;72.75;32.95;;;;;;;;;;5031675;28;20064;-66
2023/04/14 10:49:38;;;;;;;15.63;8.05;;;;;;;;;;4982098;28;20505;-66
2023/04/14 10:52:15;;;;;;;12.25;6.40;;;;;;;;;;5032002;28;20049;-66
2023/04/14 10:55:06;;;;;;;13.98;6.63;;;;;;;;;;5013902;28;20532;-66
2023/04/14 10:57:43;;;;;;;13.88;6.32;;;;;;;;;;5014364;28;20080;-66
2023/04/14 11:00:23;;;;;;;16.30;7.60;;;;;;;;;;5013472;28;20057;-66
2023/04/14 11:03:04;;;;;;;15.48;7.43;;;;;;;;;;5032156;28;20405;-66
2023/04/14 11:05:35;;;;;;;14.07;7.38;;;;;;;;;;5013608;28;20058;-66
2023/04/14 11:08:16;;;;;;;17.50;8.23;;;;;;;;;;5031990;28;20057;-66
2023/04/14 11:10:50;;;;;;;13.55;6.93;;;;;;;;;;5031780;28;20397;-65
2023/04/14 11:13:20;;;;;;;14.57;7.82;;;;;;;;;;4996850;28;20520;-66
2023/04/14 11:16:01;;;;;;;12.85;6.80;;;;;;;;;;5031783;28;20052;-65
2023/04/14 11:18:41;;;;;;;13.95;6.47;;;;;;;;;;4952113;28;20057;-66
2023/04/14 11:21:16;;;;;;;12.70;6.53;;;;;;;;;;5031405;28;20485;-66
2023/04/14 11:23:47;;;;;;;19.00;8.15;;;;;;;;;;5031580;28;20474;-65
2023/04/14 11:26:18;;;;;;;15.18;8.10;;;;;;;;;;5031381;28;20060;-66
2023/04/14 11:28:48;;;;;;;17.42;8.73;;;;;;;;;;4981459;28;20525;-66
2023/04/14 11:31:18;;;;;;;17.15;8.50;;;;;;;;;;4980344;28;20048;-66
2023/04/14 11:33:51;;;;;;;15.13;7.70;;;;;;;;;;4980134;28;20056;-66
2023/04/14 11:36:21;;;;;;;13.43;7.35;;;;;;;;;;4947727;28;20060;-66
2023/04/14 11:38:51;;;;;;;14.93;7.15;;;;;;;;;;4996430;28;20160;-66
2023/04/14 11:41:21;;;;;;;12.70;6.40;;;;;;;;;;4980233;28;20079;-66
2023/04/14 11:43:51;;;;;;;11.50;6.63;;;;;;;;;;5031452;28;20046;-66
2023/04/14 11:46:21;;;;;;;10.18;5.13;;;;;;;;;;4997041;28;20060;-66
2023/04/14 11:48:56;;;;;;;11.32;5.85;;;;;;;;;;5030732;28;20046;-67
2023/04/14 11:51:31;;;;;;;13.25;5.88;;;;;;;;;;4996072;28;20053;-66
2023/04/14 11:54:02;;;;;;;11.63;6.20;;;;;;;;;;5008976;28;20776;-65
2023/04/14 11:56:32;;;;;;;10.40;6.55;;;;;;;;;;4976068;28;20363;-66
2023/04/14 11:59:04;;;;;;;13.15;6.20;;;;;;;;;;4992842;28;20065;-66
2023/04/14 12:01:34;;;;;;;9.57;5.80;;;;;;;;;;5009053;28;20537;-66
2023/04/14 12:04:05;;;;;;;13.02;5.78;;;;;;;;;;4976127;28;20233;-67
2023/04/14 12:06:37;;;;;;;14.38;6.22;;;;;;;;;;5008319;28;20054;-66
2023/04/14 12:09:10;;;;;;;11.68;6.35;;;;;;;;;;5009014;28;20046;-66
2023/04/14 12:11:52;;;;;;;10.38;5.63;;;;;;;;;;4991044;28;20058;-67
2023/04/14 12:14:22;;;;;;;11.05;5.88;;;;;;;;;;4999893;28;20058;-68
2023/04/14 12:16:52;;;;;;;9.90;5.75;;;;;;;;;;5008887;28;20041;-66
2023/04/14 12:19:22;;;;;;;12.63;6.60;;;;;;;;;;5008679;28;20510;-66
2023/04/14 12:21:53;;;;;;;11.75;6.20;;;;;;;;;;5008681;28;20066;-66
2023/04/14 12:24:23;;;;;;;12.23;6.00;;;;;;;;;;5007924;28;20057;-66
2023/04/14 12:26:55;;;;;;;14.57;8.75;;;;;;;;;;4959089;28;20122;-66
2023/04/14 12:29:25;;;;;;;;;;;;;;;;;;5006909;28;20050;-66
2023/04/14 12:31:55;;;;;;;11.85;6.45;;;;;;;;;;5000518;28;19937;-67
2023/04/14 12:34:26;;;;;;;14.23;7.82;;;;;;;;;;5004403;28;20403;-69
2023/04/14 12:36:56;;;;;;;15.80;7.75;;;;;;;;;;4989150;28;20413;-67
2023/04/14 12:39:27;;;;;;;16.85;6.47;;;;;;;;;;5007900;28;20503;-66
2023/04/14 12:42:00;;;;;;;14.85;7.05;;;;;;;;;;5008280;28;20050;-67
2023/04/14 12:44:30;;;;;;;13.23;7.20;;;;;;;;;;4975277;28;20548;-66
2023/04/14 12:47:00;;;;;;;15.32;7.95;;;;;;;;;;4953266;28;20054;-66
2023/04/14 12:49:37;;;;;;;14.32;7.93;;;;;;;;;;4969473;28;20066;-67
2023/04/14 12:52:07;;;;;;;14.07;7.85;;;;;;;;;;4953311;28;20055;-67
2023/04/14 12:54:48;;;;;;;13.18;7.65;;;;;;;;;;4937033;28;20070;-67
2023/04/14 12:57:20;;;;;;;12.18;6.30;;;;;;;;;;4969023;28;20474;-67
2023/04/14 12:59:51;;;;;;;14.05;7.13;;;;;;;;;;4963299;28;20086;-67
2023/04/14 13:02:21;;;;;;;11.50;6.35;;;;;;;;;;4969383;28;20063;-67
2023/04/14 13:04:52;;;;;;;12.02;6.35;;;;;;;;;;4969402;28;20059;-68
2023/04/14 13:07:22;;;;;;;8.95;5.43;;;;;;;;;;4935607;28;20062;-68
2023/04/14 13:09:52;;;;;;;11.10;5.60;;;;;;;;;;4958999;28;20059;-66
2023/04/14 13:12:22;;;;;;;9.60;5.28;;;;;;;;;;4979785;28;20054;-68
2023/04/14 13:14:52;;;;;;;10.68;5.25;;;;;;;;;;4988064;28;20053;-67
2023/04/14 13:17:23;;;;;;;12.02;5.28;;;;;;;;;;4992225;28;20521;-68
2023/04/14 13:19:54;;;;;;;10.45;5.05;;;;;;;;;;4963599;28;20057;-68
2023/04/14 13:22:24;;;;;;;7.82;4.18;;;;;;;;;;5031506;28;20053;-67
2023/04/14 13:24:58;;;;;;;7.97;4.03;;;;;;;;;;5032694;28;20037;-68
2023/04/14 13:27:28;;;;;;;7.43;4.00;;;;;;;;;;5031821;28;20060;-68
2023/04/14 13:29:59;;;;;;;7.95;3.78;;;;;;;;;;5033802;28;20049;-69
2023/04/14 13:32:29;;;;;;;7.28;3.90;;;;;;;;;;5033317;28;20045;-67
2023/04/14 13:34:59;;;;;;;7.93;3.63;;;;;;;;;;5033288;28;20505;-69
2023/04/14 13:37:29;;;;;;;11.27;4.90;;;;;;;;;;4987436;28;20442;-67
2023/04/14 13:39:59;;;;;;;7.90;4.13;;;;;;;;;;4959465;28;20192;-67
2023/04/14 13:42:30;;;;;;;7.97;4.68;;;;;;;;;;4973981;28;20529;-68
2023/04/14 13:45:00;;;;;;;9.18;5.15;;;;;;;;;;4980201;28;20458;-67
2023/04/14 13:47:34;;;;;;;9.85;5.40;;;;;;;;;;4952293;28;20150;-67
2023/04/14 13:50:04;;;;;;;9.25;4.32;;;;;;;;;;4988224;28;20065;-68
2023/04/14 13:52:34;;;;;;;7.88;4.43;;;;;;;;;;4944654;28;20062;-67
2023/04/14 13:55:05;;;;;;;12.00;6.18;;;;;;;;;;4943613;28;20406;-67
2023/04/14 13:57:35;;;;;;;9.00;4.50;;;;;;;;;;4991066;28;20066;-68
2023/04/14 14:00:08;;;;;;;8.77;5.03;;;;;;;;;;4991306;28;20042;-69
2023/04/14 14:02:38;;;;;;;10.68;5.75;;;;;;;;;;4990380;28;20047;-67
2023/04/14 14:05:10;;;;;;;13.50;8.45;;;;;;;;;;4971884;28;20058;-69
2023/04/14 14:07:40;;;;;;;8.60;5.45;;;;;;;;;;4939534;28;20055;-70
2023/04/14 14:10:11;;;;;;;10.32;6.93;;;;;;;;;;4938518;28;20055;-67
2023/04/14 14:12:41;;;;;;;7.47;4.25;;;;;;;;;;4971917;28;20050;-70
2023/04/14 14:15:11;;;;;;;12.48;7.38;;;;;;;;;;4961994;28;20054;-68
2023/04/14 14:17:41;;;;;;;9.30;4.18;;;;;;;;;;5010451;28;20065;-69
2023/04/14 14:20:12;;;;;;;8.50;4.60;;;;;;;;;;4977768;28;20528;-72
2023/04/14 14:22:42;;;;;;;8.85;4.60;;;;;;;;;;4992781;28;20060;-73
2023/04/14 14:25:12;;;;;;;10.15;6.13;;;;;;;;;;4980898;28;20053;-70
2023/04/14 14:27:50;;;;;;;10.95;4.85;;;;;;;;;;5030558;28;20418;-70
2023/04/14 14:30:21;;;;;;;9.45;5.88;;;;;;;;;;5030243;28;20053;-70
2023/04/14 14:32:51;;;;;;;7.75;4.82;;;;;;;;;;5012626;28;20058;-70
2023/04/14 14:35:21;;;;;;;9.00;5.13;;;;;;;;;;5023643;28;20505;-71
2023/04/14 14:37:51;;;;;;;8.07;5.55;;;;;;;;;;5010011;28;20167;-70
2023/04/14 14:40:22;;;;;;;9.25;4.80;;;;;;;;;;5009402;28;20037;-71
2023/04/14 14:42:52;;;;;;;8.48;4.90;;;;;;;;;;5017957;28;20053;-72
2023/04/14 14:45:22;;;;;;;10.15;4.57;;;;;;;;;;4997574;28;20053;-68
2023/04/14 14:47:59;;;;;;;8.90;4.55;;;;;;;;;;5032112;28;20045;-68
2023/04/14 14:50:30;;;;;;;7.95;4.93;;;;;;;;;;4997246;28;20064;-68
2023/04/14 14:53:02;;;;;;;9.98;5.00;;;;;;;;;;5031961;28;20429;-68
2023/04/14 14:55:32;;;;;;;7.28;4.28;;;;;;;;;;5032788;28;20505;-69
2023/04/14 14:58:05;;;;;;;8.35;4.60;;;;;;;;;;5032784;28;20157;-69
2023/04/14 15:00:35;;;;;;;7.75;4.38;;;;;;;;;;4996882;28;20053;-70
2023/04/14 15:03:05;;;;;;;9.50;4.55;;;;;;;;;;4997021;28;20053;-68
2023/04/14 15:05:37;;;;;;;6.90;4.22;;;;;;;;;;4996531;28;20049;-67
2023/04/14 15:08:08;;;;;;;8.57;4.68;;;;;;;;;;4996675;28;20053;-68
2023/04/14 15:10:39;;;;;;;7.65;4.28;;;;;;;;;;5031833;28;20044;-67